ZBAA Informação do Aeroporto

Informação da Pista
Runway 01 Length 12468 ft width 197 ft
Elevation 94 ft Threshold 0 ft Heading 353
Runway 19 Length 12468 ft Width 197 ft
Elevation 84 ft Threshold 0 ft Heading 173
Runway 18L Length 12468 ft width 197 ft
Elevation 110 ft Threshold 0 ft Heading 173
Runway 36R Length 12468 ft Width 197 ft
Elevation 99 ft Threshold 0 ft Heading 353
Runway 18R Length 10499 ft width 164 ft
Elevation 116 ft Threshold 0 ft Heading 173
Runway 36L Length 10499 ft Width 164 ft
Elevation 107 ft Threshold 0 ft Heading 353
Frequencias do Aeroporto
Tipo APP Nome BEIJING AP Frequência 119.6 MHZ
Tipo APP Nome BEIJING AP Frequência 119.7 MHZ
Tipo APP Nome BEIJING AP Frequência 120.6 MHZ
Tipo APP Nome BEIJING AP Frequência 121.1 MHZ
Tipo APP Nome BEIJING AP Frequência 126.1 MHZ
Tipo APP Nome BEIJING AP Frequência 127.75 MHZ
Tipo ATIS Nome BEIJING AT Frequência 127.6 MHZ
Tipo CLD Nome BEIJING DE Frequência 121.6 MHZ
Tipo GND Nome GND EAST Frequência 121.7 MHZ
Tipo GND Nome BEIJING GN Frequência 121.7 MHZ
Tipo GND Nome GND WEST Frequência 121.9 MHZ
Tipo TWR Nome BEIJING EA Frequência 118.5 MHZ
Tipo TWR Nome BEIJING W Frequência 124.3 MHZ
Navaids Aeroporto
Tipo VOR-DME Name Beijing Frequência 114700 KHZ
Tipo VOR-DME Name Shaziying Frequência 117200 KHZ
Tempo do Aeroporto & NOTAM
ADDS - METARS form results

(1527 UTC 07 December 2019)
Data provider http://aviationweather.gov/metar/data/
 
METAR text: ZBAA 071500Z 07002MPS 8000 NSC M07/M09 Q1030 NOSIG
Conditions at: ZBAA (BEIJING/PEKING , CN) observed 1500 UTC 07 December 2019
Temperature: -7.0°C (19°F)
Dewpoint: -9.0°C (16°F) [RH = 86%]
Pressure (altimeter): 30.41 inches Hg (1030.0 mb)
Winds: from the ENE (70 degrees) at 5 MPH (4 knots; 2.1 m/s)
Visibility: 5 miles ( 8 km)
Ceiling: at least 12,000 feet AGL
Clouds: sky clear below 12,000 feet AGL
Weather: no significant weather observed at this time

METAR text: ZBAA 071430Z 06001MPS CAVOK M06/M08 Q1030 NOSIG
Conditions at: ZBAA (BEIJING/PEKING , CN) observed 1430 UTC 07 December 2019
Temperature: -6.0°C (21°F)
Dewpoint: -8.0°C (18°F) [RH = 86%]
Pressure (altimeter): 30.41 inches Hg (1030.0 mb)
Winds: from the ENE (60 degrees) at 2 MPH (2 knots; 1.0 m/s)
Visibility: 6 or more miles (10+ km)
Ceiling: ceiling and visibility are OK
Clouds: unknown
Weather: no significant weather observed at this time

Forecast for: ZBAA (BEIJING/PEKING , CN)
Text: TAF ZBAA 070930Z 0712/0812 15004MPS 3500 BR NSC TX04/0807Z TNM08/21Z
Forecast period: 1200 UTC 07 December 2019 to 1200 UTC 08 December 2019
Forecast type: FROM: standard forecast or significant change
Winds: from the SSE (150 degrees) at 9 MPH (8 knots; 4.1 m/s)
Visibility: 2.17 miles (3.49 km)
Ceiling: unknown
Clouds: missing
Weather: BR  (mist)